Time;durP1;ratioP1;P1;durP2;ratioP2;P2;SDS_P1;SDS_P2;PMS_P1;PMS_P2;Temp;Humidity;BMP_temperature;BMP_pressure;BME280_temperature;BME280_humidity;BME280_pressure;Samples;Min_cycle;Max_cycle;Signal;HPM_P1;HPM_P2
2023/08/06 00:01:25;;;;;;;5.82;3.13;;;;;;;-144.73;100.00;54389.22;4960071;28;20031;-74
2023/08/06 00:03:51;;;;;;;5.32;2.88;;;;;;;-144.73;100.00;54395.38;5008056;28;20096;-73
2023/08/06 00:06:16;;;;;;;4.47;2.80;;;;;;;-144.73;100.00;54395.38;4953227;28;20043;-73
2023/08/06 00:08:42;;;;;;;4.57;2.83;;;;;;;-144.73;100.00;54411.81;4952370;28;20029;-73
2023/08/06 00:11:07;;;;;;;8.13;3.30;;;;;;;-144.73;100.00;54362.53;4993773;28;20033;-73
2023/08/06 00:13:33;;;;;;;5.95;3.42;;;;;;;-144.73;100.00;54420.00;5030947;28;20085;-73
2023/08/06 00:16:12;;;;;;;5.75;3.35;;;;;;;-144.73;100.00;54362.53;4999977;28;20032;-73
2023/08/06 00:18:37;;;;;;;6.88;4.13;;;;;;;-144.73;100.00;54407.69;4982472;28;20073;-74
2023/08/06 00:21:03;;;;;;;14.43;4.63;;;;;;;-144.73;100.00;54391.28;4985146;28;20876;-74
2023/08/06 00:23:28;;;;;;;8.57;4.65;;;;;;;-144.73;100.00;54397.44;4933847;28;20035;-74
2023/08/06 00:25:54;;;;;;;10.30;5.30;;;;;;;-144.73;100.00;54409.75;4947530;28;20039;-74
2023/08/06 00:28:19;;;;;;;6.30;4.43;;;;;;;-144.73;100.00;54415.91;4948666;28;20024;-74
2023/08/06 00:30:44;;;;;;;10.80;5.38;;;;;;;-144.73;100.00;54387.19;4959898;28;20043;-74
2023/08/06 00:33:10;;;;;;;9.23;6.03;;;;;;;-144.73;100.00;54436.44;4969708;28;20035;-74
2023/08/06 00:35:35;;;;;;;9.80;5.40;;;;;;;-144.73;100.00;54387.19;4986752;28;20036;-74
2023/08/06 00:38:00;;;;;;;13.60;5.50;;;;;;;-144.73;100.00;54411.81;4964490;28;20043;-74
2023/08/06 00:40:28;;;;;;;13.57;6.82;;;;;;;-144.73;100.00;54372.81;4963315;28;20032;-75
2023/08/06 00:42:53;;;;;;;9.25;5.88;;;;;;;-144.73;100.00;54440.53;4993077;28;20017;-74
2023/08/06 00:45:19;;;;;;;9.55;6.35;;;;;;;-144.73;100.00;54420.00;4979234;28;20037;-75
2023/08/06 00:47:45;;;;;;;10.75;6.55;;;;;;;-144.73;100.00;54456.97;4976657;28;20027;-74
2023/08/06 00:50:12;;;;;;;18.38;7.00;;;;;;;-144.73;100.00;54417.97;4940889;28;20055;-75
2023/08/06 00:52:37;;;;;;;10.80;6.07;;;;;;;-144.73;100.00;54436.44;4986263;28;20130;-75
2023/08/06 00:55:04;;;;;;;8.90;6.00;;;;;;;-144.73;100.00;54399.50;5019284;28;20037;-74
2023/08/06 00:57:29;;;;;;;8.93;6.57;;;;;;;-144.73;100.00;54387.19;4994159;28;20087;-74
2023/08/06 00:59:55;;;;;;;9.23;6.65;;;;;;;-144.73;100.00;54420.00;4947011;28;20023;-74
2023/08/06 01:02:20;;;;;;;9.55;6.32;;;;;;;-144.73;100.00;54407.69;4934206;28;20039;-74
2023/08/06 01:04:45;;;;;;;12.68;6.13;;;;;;;-144.73;100.00;54393.34;4934124;28;20034;-74
2023/08/06 01:07:29;;;;;;;10.10;6.25;;;;;;;-144.73;100.00;54420.00;4951280;28;20085;-73
2023/08/06 01:10:23;;;;;;;11.23;6.82;;;;;;;-144.73;100.00;54424.13;4963093;28;20027;-74
2023/08/06 01:13:02;;;;;;;9.25;6.47;;;;;;;-144.73;100.00;54432.31;4937714;28;20053;-74
2023/08/06 01:15:32;;;;;;;12.95;7.65;;;;;;;-144.73;100.00;54438.50;4933558;28;20043;-74
2023/08/06 01:17:58;;;;;;;8.63;6.25;;;;;;;-144.73;100.00;54407.69;4962291;28;20032;-74
2023/08/06 01:20:30;;;;;;;10.75;6.63;;;;;;;-144.73;100.00;54432.31;5001842;28;20031;-74
2023/08/06 01:22:56;;;;;;;9.60;6.07;;;;;;;-144.73;100.00;54415.91;4975063;28;20017;-75
2023/08/06 01:25:25;;;;;;;10.05;6.30;;;;;;;-144.73;100.00;54407.69;5031385;28;20031;-74
2023/08/06 01:27:55;;;;;;;12.40;7.70;;;;;;;-144.73;100.00;54407.69;4964718;28;20019;-74
2023/08/06 01:30:30;;;;;;;12.85;9.00;;;;;;;-144.73;100.00;54432.31;4981611;28;20046;-75
2023/08/06 01:33:00;;;;;;;12.43;8.45;;;;;;;-144.73;100.00;54407.69;4974229;28;20034;-74
2023/08/06 01:35:27;;;;;;;10.65;7.75;;;;;;;-144.73;100.00;54378.97;4974361;28;20114;-74
2023/08/06 01:37:53;;;;;;;18.30;9.63;;;;;;;-144.73;100.00;54424.13;4998280;28;20023;-74
2023/08/06 01:40:18;;;;;;;10.88;7.63;;;;;;;-144.73;100.00;54411.81;4964495;28;20048;-74
2023/08/06 01:42:43;;;;;;;11.05;7.53;;;;;;;-144.73;100.00;54434.38;5004122;28;20067;-74
2023/08/06 01:45:10;;;;;;;9.93;6.85;;;;;;;-144.73;100.00;54411.81;4991637;28;20050;-74
2023/08/06 01:47:35;;;;;;;16.05;9.32;;;;;;;-144.73;100.00;54432.31;4959819;28;20019;-74
2023/08/06 01:50:01;;;;;;;11.80;7.68;;;;;;;-144.73;100.00;54391.28;4960396;28;20023;-74
2023/08/06 01:52:27;;;;;;;12.18;8.50;;;;;;;-144.73;100.00;54395.38;4950839;28;20031;-74
2023/08/06 01:54:52;;;;;;;9.30;6.75;;;;;;;-144.73;100.00;54387.19;4933124;28;20403;-74
2023/08/06 01:57:17;;;;;;;17.08;7.95;;;;;;;-144.73;100.00;54407.69;4932488;28;20044;-74
2023/08/06 01:59:43;;;;;;;9.32;6.70;;;;;;;-144.73;100.00;54428.22;4948381;28;20030;-74
2023/08/06 02:02:08;;;;;;;13.20;6.88;;;;;;;-144.73;100.00;54415.91;4962334;28;20053;-74
2023/08/06 02:04:33;;;;;;;20.60;8.20;;;;;;;-144.73;100.00;54395.38;4989331;28;20039;-74
2023/08/06 02:06:59;;;;;;;13.63;8.65;;;;;;;-144.73;100.00;54378.97;4969218;28;20025;-74
2023/08/06 02:09:24;;;;;;;11.80;7.50;;;;;;;-144.73;100.00;54387.19;4958359;28;20069;-74
2023/08/06 02:11:50;;;;;;;13.63;7.45;;;;;;;-144.73;100.00;54407.69;4963374;28;20031;-72
2023/08/06 02:14:15;;;;;;;11.68;6.80;;;;;;;-144.73;100.00;54448.75;4987062;28;20024;-73
2023/08/06 02:16:40;;;;;;;15.70;8.32;;;;;;;-144.73;100.00;54444.66;4964800;28;20031;-72
2023/08/06 02:19:06;;;;;;;12.55;7.60;;;;;;;-144.73;100.00;54426.16;4959517;28;20030;-73
2023/08/06 02:21:31;;;;;;;12.55;7.72;;;;;;;-144.73;100.00;54452.84;4949980;28;20066;-73
2023/08/06 02:23:56;;;;;;;9.40;6.50;;;;;;;-144.73;100.00;54432.31;4966050;28;20028;-73
2023/08/06 02:26:22;;;;;;;16.25;7.97;;;;;;;-144.73;100.00;54448.75;4949256;28;20478;-73
2023/08/06 02:28:47;;;;;;;16.38;8.30;;;;;;;-144.73;100.00;54407.69;4991518;28;20011;-72
2023/08/06 02:31:12;;;;;;;10.50;7.65;;;;;;;-144.73;100.00;54417.97;4932087;28;20116;-73
2023/08/06 02:33:38;;;;;;;12.38;7.78;;;;;;;-144.73;100.00;54411.81;4950375;28;20029;-73
2023/08/06 02:36:04;;;;;;;12.52;7.68;;;;;;;-144.73;100.00;54417.97;4937830;28;20039;-73
2023/08/06 02:38:30;;;;;;;10.77;7.20;;;;;;;-144.73;100.00;54444.66;4974955;28;20025;-73
2023/08/06 02:40:56;;;;;;;18.00;7.88;;;;;;;-144.73;100.00;54446.69;4973589;28;20038;-72
2023/08/06 02:43:21;;;;;;;16.75;7.85;;;;;;;-144.73;100.00;54452.84;4989671;28;20033;-73
2023/08/06 02:45:46;;;;;;;12.15;7.15;;;;;;;-144.73;100.00;54415.91;4974537;28;20482;-73
2023/08/06 02:48:12;;;;;;;15.45;8.32;;;;;;;-144.73;100.00;54428.22;5000237;28;20061;-73
2023/08/06 02:50:39;;;;;;;17.08;7.95;;;;;;;-144.73;100.00;54411.81;4990677;28;20053;-73
2023/08/06 02:53:05;;;;;;;16.63;8.27;;;;;;;-144.73;100.00;54420.00;4974224;28;20040;-73
2023/08/06 02:55:30;;;;;;;22.67;9.00;;;;;;;-144.73;100.00;54411.81;5005818;28;20036;-73
2023/08/06 02:57:56;;;;;;;10.10;7.10;;;;;;;-144.73;100.00;54424.13;4982006;28;20101;-73
2023/08/06 03:00:21;;;;;;;16.48;8.40;;;;;;;-144.73;100.00;54436.44;4949446;28;20035;-73
2023/08/06 03:02:46;;;;;;;15.63;8.43;;;;;;;-144.73;100.00;54473.38;4947815;28;20045;-73
2023/08/06 03:05:12;;;;;;;17.25;7.05;;;;;;;-144.73;100.00;54415.91;4942054;28;20033;-73
2023/08/06 03:07:37;;;;;;;11.27;6.60;;;;;;;-144.73;100.00;54452.84;5010497;28;20032;-73
2023/08/06 03:10:03;;;;;;;11.65;6.60;;;;;;;-144.73;100.00;54424.13;4945817;28;20035;-74
2023/08/06 03:12:28;;;;;;;17.60;8.82;;;;;;;-144.73;100.00;54432.31;4946198;28;20032;-73
2023/08/06 03:14:53;;;;;;;13.52;7.60;;;;;;;-144.73;100.00;54452.84;4946575;28;20023;-73
2023/08/06 03:17:19;;;;;;;16.65;8.60;;;;;;;-144.73;100.00;54448.75;4952427;28;20039;-72
2023/08/06 03:19:44;;;;;;;14.30;7.75;;;;;;;-144.73;100.00;54465.16;4949501;28;20469;-73
2023/08/06 03:22:09;;;;;;;10.93;7.43;;;;;;;-144.73;100.00;54440.53;4989301;28;20036;-72
2023/08/06 03:24:35;;;;;;;17.23;7.95;;;;;;;-144.73;100.00;54469.28;4984361;28;20036;-72
2023/08/06 03:27:00;;;;;;;15.52;7.40;;;;;;;-144.73;100.00;54417.97;5000077;28;20046;-73
2023/08/06 03:29:25;;;;;;;9.80;6.72;;;;;;;-144.73;100.00;54428.22;5031337;28;20036;-73
2023/08/06 03:31:52;;;;;;;14.55;7.13;;;;;;;-144.73;100.00;54407.69;4944211;28;20028;-74
2023/08/06 03:34:17;;;;;;;15.95;7.30;;;;;;;-144.73;100.00;54444.66;4995572;28;20043;-73
2023/08/06 03:36:42;;;;;;;9.30;6.90;;;;;;;-144.73;100.00;54465.16;4990246;28;20203;-73
2023/08/06 03:39:08;;;;;;;12.07;7.15;;;;;;;-144.73;100.00;54440.53;4949785;28;20154;-73
2023/08/06 03:41:33;;;;;;;13.93;7.38;;;;;;;-144.73;100.00;54436.44;4966095;28;20023;-73
2023/08/06 03:44:00;;;;;;;12.23;7.38;;;;;;;-144.73;100.00;54424.13;4931388;28;20039;-74
2023/08/06 03:46:26;;;;;;;15.77;7.63;;;;;;;-144.73;100.00;54407.69;4965874;28;20099;-74
2023/08/06 03:48:51;;;;;;;14.57;6.32;;;;;;;-144.73;100.00;54432.31;4967441;28;20093;-75
2023/08/06 03:51:17;;;;;;;16.65;7.32;;;;;;;-144.73;100.00;54432.31;4994667;28;20029;-75
2023/08/06 03:53:42;;;;;;;12.50;6.80;;;;;;;-144.73;100.00;54481.59;4950612;28;20024;-74
2023/08/06 03:56:07;;;;;;;11.10;6.05;;;;;;;-144.73;100.00;54452.84;4971812;28;20043;-75
2023/08/06 03:58:32;;;;;;;15.25;7.18;;;;;;;-144.73;100.00;54446.69;4972947;28;20054;-75
2023/08/06 04:01:02;;;;;;;12.25;6.85;;;;;;;-144.73;100.00;54434.38;5029456;28;20406;-75
2023/08/06 04:03:28;;;;;;;11.95;6.93;;;;;;;-144.73;100.00;54426.16;4944832;28;20061;-75
2023/08/06 04:05:54;;;;;;;16.63;7.90;;;;;;;-144.73;100.00;54444.66;4930110;28;20043;-75
2023/08/06 04:08:19;;;;;;;8.15;6.40;;;;;;;-144.73;100.00;54448.75;4955763;28;20084;-75
2023/08/06 04:10:45;;;;;;;12.93;6.13;;;;;;;-144.73;100.00;54420.00;4952594;28;20154;-75
2023/08/06 04:13:10;;;;;;;13.50;7.97;;;;;;;-144.73;100.00;54452.84;4957789;28;20028;-75
2023/08/06 04:15:35;;;;;;;12.20;6.80;;;;;;;-144.73;100.00;54454.91;4932728;28;20043;-75
2023/08/06 04:18:01;;;;;;;14.85;7.43;;;;;;;-144.73;100.00;54428.22;4975180;28;20414;-75
2023/08/06 04:20:26;;;;;;;12.65;7.45;;;;;;;-144.73;100.00;54432.31;5015643;28;20025;-76
2023/08/06 04:22:54;;;;;;;17.20;7.35;;;;;;;-144.73;100.00;54473.38;4998423;28;20020;-75
2023/08/06 04:25:20;;;;;;;16.40;7.93;;;;;;;-144.73;100.00;54411.81;4956274;28;20031;-75
2023/08/06 04:27:49;;;;;;;21.55;8.15;;;;;;;-144.73;100.00;54444.66;4935323;28;20023;-75
2023/08/06 04:30:15;;;;;;;11.40;7.82;;;;;;;-144.73;100.00;54411.81;4975878;28;20040;-75
2023/08/06 04:32:40;;;;;;;11.55;6.78;;;;;;;-144.73;100.00;54461.06;4971271;28;20031;-76
2023/08/06 04:35:06;;;;;;;17.42;7.35;;;;;;;-144.73;100.00;54469.28;4954225;28;20513;-75
2023/08/06 04:37:32;;;;;;;13.68;7.38;;;;;;;-144.73;100.00;54456.97;4964332;28;20042;-75
2023/08/06 04:39:57;;;;;;;15.80;9.35;;;;;;;-144.73;100.00;54465.16;4975850;28;20023;-75
2023/08/06 04:42:23;;;;;;;19.77;8.65;;;;;;;-144.73;100.00;54432.31;4951119;28;20533;-75
2023/08/06 04:44:48;;;;;;;14.70;6.72;;;;;;;-144.73;100.00;54428.22;5034326;28;20031;-75
2023/08/06 04:47:13;;;;;;;17.55;8.85;;;;;;;-144.73;100.00;54473.38;4933908;28;20043;-76
2023/08/06 04:49:39;;;;;;;12.65;7.38;;;;;;;-144.73;100.00;54432.31;4978468;28;20025;-75
2023/08/06 04:52:04;;;;;;;19.85;8.38;;;;;;;-144.73;100.00;54446.69;4989707;28;20048;-75
2023/08/06 04:54:30;;;;;;;12.77;7.20;;;;;;;-144.73;100.00;54432.31;4969877;28;20518;-75
2023/08/06 04:56:55;;;;;;;20.15;7.60;;;;;;;-144.73;100.00;54432.31;5001357;28;20075;-75
2023/08/06 04:59:20;;;;;;;28.63;9.82;;;;;;;-144.73;100.00;54452.84;4975159;28;20031;-75
2023/08/06 05:01:46;;;;;;;17.05;8.73;;;;;;;-144.73;100.00;54444.66;4953897;28;20034;-75
2023/08/06 05:04:11;;;;;;;23.75;7.88;;;;;;;-144.73;100.00;54438.50;4973740;28;20033;-75
2023/08/06 05:06:38;;;;;;;18.90;8.38;;;;;;;-144.73;100.00;54444.66;4954456;28;20039;-75
2023/08/06 05:09:04;;;;;;;23.38;9.52;;;;;;;-144.73;100.00;54440.53;4989452;28;20025;-76
2023/08/06 05:11:29;;;;;;;16.63;9.10;;;;;;;-144.73;100.00;54493.91;4971554;28;20047;-75
2023/08/06 05:13:55;;;;;;;23.40;9.13;;;;;;;-144.73;100.00;54446.69;4982488;28;20037;-75
2023/08/06 05:16:20;;;;;;;16.63;9.30;;;;;;;-144.73;100.00;54444.66;4958518;28;20054;-75
2023/08/06 05:18:45;;;;;;;18.42;9.50;;;;;;;-144.73;100.00;54452.84;4972186;28;20035;-75
2023/08/06 05:21:11;;;;;;;18.98;10.32;;;;;;;-144.73;100.00;54448.75;4954409;28;20047;-75
2023/08/06 05:23:36;;;;;;;19.02;7.78;;;;;;;-144.73;100.00;54456.97;4950860;29;20027;-75
2023/08/06 05:26:02;;;;;;;14.52;8.52;;;;;;;-144.73;100.00;54422.06;4950093;28;20051;-75
2023/08/06 05:28:27;;;;;;;20.02;9.05;;;;;;;-144.73;100.00;54461.06;4951170;28;20023;-75
2023/08/06 05:30:52;;;;;;;16.65;9.68;;;;;;;-144.73;100.00;54432.31;4933840;28;20109;-75
2023/08/06 05:33:18;;;;;;;28.13;9.88;;;;;;;-144.73;100.00;54444.66;4951374;28;20089;-75
2023/08/06 05:35:43;;;;;;;17.27;8.52;;;;;;;-144.73;100.00;54454.91;4950779;28;20027;-75
2023/08/06 05:38:08;;;;;;;19.60;8.40;;;;;;;-144.73;100.00;54428.22;4951469;28;20074;-74
2023/08/06 05:40:34;;;;;;;20.50;9.52;;;;;;;-144.73;100.00;54477.47;5004024;28;22024;-75
2023/08/06 05:42:59;;;;;;;16.95;8.27;;;;;;;-144.73;100.00;54411.81;4957500;28;20076;-75
2023/08/06 05:45:25;;;;;;;22.05;8.90;;;;;;;-144.73;100.00;54440.53;4970820;28;20049;-75
2023/08/06 05:47:50;;;;;;;16.13;8.75;;;;;;;-144.73;100.00;54467.22;5033253;28;20079;-75
2023/08/06 05:50:16;;;;;;;19.67;9.40;;;;;;;-144.73;100.00;54450.81;4953817;28;20033;-75
2023/08/06 05:52:41;;;;;;;21.52;8.60;;;;;;;-144.73;100.00;54467.22;4955058;28;20019;-75
2023/08/06 05:55:07;;;;;;;22.17;9.52;;;;;;;-144.73;100.00;54456.97;4974096;28;20051;-75
2023/08/06 05:57:32;;;;;;;17.67;9.55;;;;;;;-144.73;100.00;54465.16;4964295;28;20035;-75
2023/08/06 05:59:57;;;;;;;20.40;9.02;;;;;;;-144.73;100.00;54489.81;5014573;28;20040;-75
2023/08/06 06:02:23;;;;;;;22.05;9.77;;;;;;;-144.73;100.00;54444.66;4958935;28;20138;-75
2023/08/06 06:04:48;;;;;;;15.70;9.60;;;;;;;-144.73;100.00;54502.13;5008197;28;20078;-75
2023/08/06 06:07:14;;;;;;;19.95;9.70;;;;;;;-144.73;100.00;54489.81;4993758;28;20133;-74
2023/08/06 06:09:39;;;;;;;19.73;9.52;;;;;;;-144.73;100.00;54469.28;4955288;28;20023;-75
2023/08/06 06:12:06;;;;;;;23.52;10.70;;;;;;;-144.73;100.00;54420.00;4935012;28;20043;-75
2023/08/06 06:14:31;;;;;;;16.42;9.45;;;;;;;-144.73;100.00;54483.66;4933192;28;20149;-75
2023/08/06 06:16:56;;;;;;;19.30;8.15;;;;;;;-144.73;100.00;54452.84;4961093;28;20122;-75
2023/08/06 06:19:22;;;;;;;16.95;8.77;;;;;;;-144.73;100.00;54436.44;4950251;28;20027;-75
2023/08/06 06:21:47;;;;;;;20.27;8.48;;;;;;;-144.73;100.00;54459.00;4934347;28;20110;-75
2023/08/06 06:24:12;;;;;;;17.77;9.45;;;;;;;-144.73;100.00;54452.84;5032173;28;20084;-75
2023/08/06 06:26:38;;;;;;;19.35;8.68;;;;;;;-144.73;100.00;54461.06;5027399;28;20054;-74
2023/08/06 06:29:04;;;;;;;16.85;8.82;;;;;;;-144.73;100.00;54456.97;4932784;28;20023;-75
2023/08/06 06:31:29;;;;;;;22.42;8.93;;;;;;;-144.73;100.00;54448.75;4951599;28;20035;-74
2023/08/06 06:33:54;;;;;;;21.17;8.15;;;;;;;-144.73;100.00;54452.84;4950251;28;20073;-75
2023/08/06 06:36:20;;;;;;;20.27;9.48;;;;;;;-144.73;100.00;54493.91;4949407;28;20055;-74
2023/08/06 06:38:46;;;;;;;11.30;8.55;;;;;;;-144.73;100.00;54461.06;4949192;28;20027;-74
2023/08/06 06:41:11;;;;;;;16.05;8.25;;;;;;;-144.73;100.00;54413.84;5011446;28;20060;-74
2023/08/06 06:43:38;;;;;;;18.60;8.02;;;;;;;-144.73;100.00;54485.69;4968492;28;20031;-74
2023/08/06 06:46:03;;;;;;;14.85;8.45;;;;;;;-144.73;100.00;54452.84;4954833;28;20091;-74
2023/08/06 06:48:31;;;;;;;16.27;8.63;;;;;;;-144.73;100.00;54489.81;5014934;28;20048;-74
2023/08/06 06:50:56;;;;;;;23.33;8.93;;;;;;;-144.73;100.00;54446.69;4949686;28;20046;-74
2023/08/06 06:53:27;;;;;;;21.85;9.00;;;;;;;-144.73;100.00;54454.91;4933347;28;20023;-74
2023/08/06 06:55:54;;;;;;;26.17;10.70;;;;;;;-144.73;100.00;54477.47;4932446;28;20034;-74
2023/08/06 06:58:19;;;;;;;17.42;9.02;;;;;;;-144.73;100.00;54456.97;4932621;28;20023;-74
2023/08/06 07:00:45;;;;;;;13.88;7.60;;;;;;;-144.73;100.00;54428.22;4963923;28;20037;-74
2023/08/06 07:03:11;;;;;;;14.32;8.75;;;;;;;-144.73;100.00;54463.13;4978547;28;20037;-74
2023/08/06 07:05:36;;;;;;;16.88;8.82;;;;;;;-144.73;100.00;54456.97;4993699;28;20039;-74
2023/08/06 07:08:01;;;;;;;14.00;8.65;;;;;;;-144.73;100.00;54456.97;4974471;28;20038;-74
2023/08/06 07:10:27;;;;;;;21.13;8.90;;;;;;;-144.73;100.00;54444.66;4931993;28;20043;-74
2023/08/06 07:12:52;;;;;;;19.33;9.00;;;;;;;-144.73;100.00;54456.97;4933755;28;20122;-74
2023/08/06 07:15:17;;;;;;;16.92;9.27;;;;;;;-144.73;100.00;54514.44;4948853;28;20397;-73
2023/08/06 07:17:43;;;;;;;13.95;8.23;;;;;;;-144.73;100.00;54463.13;4948574;28;20027;-74
2023/08/06 07:20:09;;;;;;;23.38;8.23;;;;;;;-144.73;100.00;54444.66;4990199;28;20092;-74
2023/08/06 07:22:35;;;;;;;16.98;8.93;;;;;;;-144.73;100.00;54485.69;4990451;28;20048;-73
2023/08/06 07:25:00;;;;;;;18.50;8.43;;;;;;;-144.73;100.00;54473.38;4963120;28;20027;-73
2023/08/06 07:27:25;;;;;;;18.02;9.07;;;;;;;-144.73;100.00;54479.53;4931257;28;20035;-73
2023/08/06 07:29:50;;;;;;;20.70;9.68;;;;;;;-144.73;100.00;54450.81;4974414;28;20038;-74
2023/08/06 07:32:16;;;;;;;18.60;8.55;;;;;;;-144.73;100.00;54432.31;4963737;28;20031;-73
2023/08/06 07:34:41;;;;;;;17.95;7.70;;;;;;;-144.73;100.00;54469.28;4947324;28;20035;-73
2023/08/06 07:37:07;;;;;;;20.77;8.45;;;;;;;-144.73;100.00;54454.91;4946315;28;20035;-74
2023/08/06 07:39:32;;;;;;;17.40;8.50;;;;;;;-144.73;100.00;54444.66;4947038;28;20039;-73
2023/08/06 07:41:57;;;;;;;17.77;7.97;;;;;;;-144.73;100.00;54444.66;5033279;28;20037;-74
2023/08/06 07:44:23;;;;;;;22.00;9.73;;;;;;;-144.73;100.00;54473.38;4961014;28;20541;-74
2023/08/06 07:46:49;;;;;;;19.67;8.60;;;;;;;-144.73;100.00;54440.53;4999133;28;20021;-73
2023/08/06 07:49:14;;;;;;;20.83;8.93;;;;;;;-144.73;100.00;54461.06;4976386;28;20471;-74
2023/08/06 07:51:39;;;;;;;30.42;8.52;;;;;;;-144.73;100.00;54456.97;4948894;28;20042;-73
2023/08/06 07:54:06;;;;;;;18.13;8.73;;;;;;;-144.73;100.00;54436.44;4957378;28;20037;-74
2023/08/06 07:56:31;;;;;;;13.77;8.48;;;;;;;-144.73;100.00;54450.81;4934440;28;20150;-74
2023/08/06 07:58:56;;;;;;;18.90;8.75;;;;;;;-144.73;100.00;54473.38;4960300;28;20027;-74
2023/08/06 08:01:22;;;;;;;20.50;9.00;;;;;;;-144.73;100.00;54452.84;4967493;28;20046;-74
2023/08/06 08:03:47;;;;;;;17.42;7.75;;;;;;;-144.73;100.00;54477.47;5003463;28;20031;-74
2023/08/06 08:06:12;;;;;;;18.73;8.35;;;;;;;-144.73;100.00;54481.59;4943136;28;20035;-73
2023/08/06 08:08:38;;;;;;;19.80;8.40;;;;;;;-144.73;100.00;54432.31;4972234;28;20019;-73
2023/08/06 08:11:04;;;;;;;13.77;8.05;;;;;;;-144.73;100.00;54465.16;4972376;28;20059;-73
2023/08/06 08:13:29;;;;;;;19.23;8.40;;;;;;;-144.73;100.00;54440.53;5047399;28;20531;-73
2023/08/06 08:15:59;;;;;;;15.80;8.27;;;;;;;-144.73;100.00;54446.69;4957345;28;20057;-73
2023/08/06 08:18:25;;;;;;;22.23;8.88;;;;;;;-144.73;100.00;54461.06;4987723;28;20041;-74
2023/08/06 08:20:50;;;;;;;17.40;9.27;;;;;;;-144.73;100.00;54456.97;4975431;28;20093;-74
2023/08/06 08:23:16;;;;;;;13.75;7.88;;;;;;;-144.73;100.00;54469.28;5010222;28;20028;-74
2023/08/06 08:25:41;;;;;;;14.25;7.28;;;;;;;-144.73;100.00;54465.16;5000198;28;20033;-74
2023/08/06 08:28:07;;;;;;;20.40;7.75;;;;;;;-144.73;100.00;54456.97;4975908;28;20035;-74
2023/08/06 08:30:32;;;;;;;18.30;8.38;;;;;;;-144.73;100.00;54504.16;4966124;28;20074;-74
2023/08/06 08:32:58;;;;;;;15.82;8.00;;;;;;;-144.73;100.00;54477.47;4955643;28;20031;-74
2023/08/06 08:35:23;;;;;;;23.52;9.63;;;;;;;-144.73;100.00;54440.53;4989806;28;20045;-74
2023/08/06 08:37:48;;;;;;;30.05;9.13;;;;;;;-144.73;100.00;54469.28;4962357;28;20118;-74
2023/08/06 08:40:14;;;;;;;20.35;8.60;;;;;;;-144.73;100.00;54448.75;4961966;28;20023;-75
2023/08/06 08:42:40;;;;;;;19.42;8.85;;;;;;;-144.73;100.00;54473.38;4939862;28;20054;-74
2023/08/06 08:45:12;;;;;;;21.40;10.10;;;;;;;-144.73;100.00;54465.16;4936105;28;20065;-75
2023/08/06 08:47:38;;;;;;;23.67;9.60;;;;;;;-144.73;100.00;54461.06;4938698;28;20037;-74
2023/08/06 08:50:06;;;;;;;16.45;7.85;;;;;;;-144.73;100.00;54473.38;4939298;28;20031;-74
2023/08/06 08:52:34;;;;;;;26.02;9.57;;;;;;;-144.73;100.00;54452.84;4937957;28;20031;-74
2023/08/06 08:55:01;;;;;;;17.52;8.52;;;;;;;-144.73;100.00;54424.13;4935388;28;20089;-74
2023/08/06 08:57:27;;;;;;;17.60;8.77;;;;;;;-144.73;100.00;54444.66;4956062;28;20043;-74
2023/08/06 08:59:52;;;;;;;24.13;15.05;;;;;;;-144.73;100.00;54444.66;4933958;28;20023;-74
2023/08/06 09:02:20;;;;;;;18.10;9.00;;;;;;;-144.73;100.00;54456.97;4934377;28;20047;-74
2023/08/06 09:04:48;;;;;;;14.48;8.10;;;;;;;-144.73;100.00;54436.44;4966100;28;20039;-73
2023/08/06 09:07:17;;;;;;;20.92;8.60;;;;;;;-144.73;100.00;54473.38;4944670;28;20046;-74
2023/08/06 09:09:44;;;;;;;15.43;8.85;;;;;;;-144.73;100.00;54481.59;4955310;28;20023;-74
2023/08/06 09:12:15;;;;;;;20.88;9.60;;;;;;;-144.73;100.00;54477.47;4981985;28;20040;-74
2023/08/06 09:14:42;;;;;;;17.77;9.35;;;;;;;-144.73;100.00;54452.84;4935404;28;20023;-74
2023/08/06 09:17:08;;;;;;;15.82;8.30;;;;;;;-144.73;100.00;54489.81;4945637;28;20039;-74
2023/08/06 09:19:34;;;;;;;14.70;8.50;;;;;;;-144.73;100.00;54477.47;4940243;28;20038;-74
2023/08/06 09:21:59;;;;;;;16.00;8.32;;;;;;;-144.73;100.00;54434.38;4955813;28;20037;-74
2023/08/06 09:24:26;;;;;;;11.68;8.02;;;;;;;-144.73;100.00;54452.84;4956921;28;20071;-74
2023/08/06 09:26:54;;;;;;;17.83;7.85;;;;;;;-144.73;100.00;54463.13;5035807;28;20043;-75
2023/08/06 09:29:20;;;;;;;23.67;8.95;;;;;;;-144.73;100.00;54465.16;4941549;28;20065;-73
2023/08/06 09:31:53;;;;;;;20.08;9.10;;;;;;;-144.73;100.00;54514.44;4944521;28;20042;-73
2023/08/06 09:34:24;;;;;;;18.00;7.90;;;;;;;-144.73;100.00;54465.16;4940138;28;20034;-74
2023/08/06 09:36:51;;;;;;;27.67;13.20;;;;;;;-144.73;100.00;54450.81;4972164;28;20042;-74
2023/08/06 09:39:22;;;;;;;15.82;8.85;;;;;;;-144.73;100.00;54479.53;4956935;28;20031;-74
2023/08/06 09:41:48;;;;;;;14.63;8.93;;;;;;;-144.73;100.00;54477.47;4955024;28;20054;-74
2023/08/06 09:44:19;;;;;;;17.60;8.43;;;;;;;-144.73;100.00;54444.66;4954812;28;20039;-74
2023/08/06 09:46:49;;;;;;;23.27;9.77;;;;;;;-144.73;100.00;54440.53;5031832;28;20122;-74
2023/08/06 09:49:15;;;;;;;16.83;8.50;;;;;;;-144.73;100.00;54493.91;4950990;28;20357;-74
2023/08/06 09:51:41;;;;;;;15.32;8.95;;;;;;;-144.73;100.00;54452.84;4937134;28;20031;-75
2023/08/06 09:54:07;;;;;;;19.65;9.45;;;;;;;-144.73;100.00;54493.91;4947843;28;20504;-75
2023/08/06 09:56:37;;;;;;;16.77;9.15;;;;;;;-144.73;100.00;54456.97;4965112;28;20046;-75
2023/08/06 09:59:05;;;;;;;20.60;11.10;;;;;;;-144.73;100.00;54436.44;4951061;28;20081;-75
2023/08/06 10:01:33;;;;;;;19.98;11.05;;;;;;;-144.73;100.00;54502.13;4947291;28;20093;-75
2023/08/06 10:04:00;;;;;;;18.55;10.75;;;;;;;-144.73;100.00;54485.69;4983389;28;20042;-75
2023/08/06 10:06:26;;;;;;;18.67;10.52;;;;;;;-144.73;100.00;54498.00;4954084;28;20090;-76
2023/08/06 10:08:51;;;;;;;20.10;11.68;;;;;;;-144.73;100.00;54475.44;4971799;28;20031;-73
2023/08/06 10:11:18;;;;;;;18.23;11.55;;;;;;;-144.73;100.00;54454.91;4950155;28;20046;-74
2023/08/06 10:13:44;;;;;;;25.33;12.52;;;;;;;-144.73;100.00;54479.53;4961353;28;20042;-74
2023/08/06 10:16:09;;;;;;;24.15;12.45;;;;;;;-144.73;100.00;54459.00;4939756;28;20066;-74
2023/08/06 10:18:38;;;;;;;35.38;13.25;;;;;;;-144.73;100.00;54481.59;4942905;28;20059;-75
2023/08/06 10:21:08;;;;;;;19.67;12.90;;;;;;;-144.73;100.00;54448.75;4984325;28;20025;-75
2023/08/06 10:23:37;;;;;;;27.10;12.15;;;;;;;-144.73;100.00;54463.13;4973145;28;20024;-75
2023/08/06 10:26:03;;;;;;;24.08;13.13;;;;;;;-144.73;100.00;54473.38;5012083;28;20088;-74
2023/08/06 10:28:37;;;;;;;20.13;12.18;;;;;;;-144.73;100.00;54493.91;4950297;28;20027;-74
2023/08/06 10:31:04;;;;;;;21.23;12.30;;;;;;;-144.73;100.00;54456.97;4935185;28;20592;-74
2023/08/06 10:33:50;;;;;;;21.63;15.10;;;;;;;-144.73;100.00;54475.44;4931466;28;20023;-74
2023/08/06 10:36:15;;;;;;;21.35;14.18;;;;;;;-144.73;100.00;54465.16;5024680;28;20032;-74
2023/08/06 10:38:46;;;;;;;23.77;13.32;;;;;;;-144.73;100.00;54461.06;4973766;28;20057;-74
2023/08/06 10:41:16;;;;;;;20.35;11.90;;;;;;;-144.73;100.00;54452.84;5029358;28;20031;-74
2023/08/06 10:43:44;;;;;;;29.63;13.60;;;;;;;-144.73;100.00;54502.13;4953623;28;20024;-75
2023/08/06 10:46:20;;;;;;;19.38;12.27;;;;;;;-144.73;100.00;54481.59;5009687;28;20031;-75
2023/08/06 10:48:45;;;;;;;20.20;13.43;;;;;;;-144.73;100.00;54465.16;4963946;28;20015;-75
2023/08/06 10:51:13;;;;;;;19.63;12.25;;;;;;;-144.73;100.00;54485.69;4933172;28;20515;-74
2023/08/06 10:53:42;;;;;;;22.70;13.90;;;;;;;-144.73;100.00;54452.84;4966960;28;20013;-74
2023/08/06 10:56:16;;;;;;;21.75;11.75;;;;;;;-144.73;100.00;54485.69;5029322;28;20105;-74
2023/08/06 10:58:43;;;;;;;23.17;11.02;;;;;;;-144.73;100.00;54465.16;4978386;28;20081;-75